Wem, United Kingdom
Current Conditions -  °F | °C
As of 9:02 AM on Wednesday 28 Jan 2015 (Local Time) from EGOS Reporting Station
Heavy Rain Heavy Rain  
Wind Chill: 39°   Ceiling: 2000
Heat Index: 48°   Visibility: 1.8mi
Dew Point: 43°   Wind: 31mph
Humidity: 82%   Direction: 260°W
Pressure: 29.47"   Gusts: NA
Location:  52.86°N, 2.72°W
Report Text: EGOS 280902Z 26027KT 3000 +RA SCT014 BKN020 09/06 Q0998 YLO1 BECMG 9999 NSW FEW015 BLU
Loading
Personal Weather Stations






























Interactive Weather Map New forecast layout! Learn more

10-Day Weather Forecast

Advertisements
Track Severe Weather on mobile